createdAt,value
2022-10-25T00:00:02.115Z,97.7
2022-10-25T00:02:34.608Z,97.8
2022-10-25T00:05:07.080Z,97.4
2022-10-25T00:07:39.546Z,97.7
2022-10-25T00:08:55.781Z,97.6
2022-10-25T00:10:11.053Z,97.6
2022-10-25T00:11:27.279Z,97.6
2022-10-25T00:12:43.529Z,97.5
2022-10-25T00:13:59.765Z,97.5
2022-10-25T00:15:16.002Z,97.3
2022-10-25T00:16:32.246Z,97.4
2022-10-25T00:20:20.960Z,97.3
2022-10-25T00:21:37.203Z,97.5
2022-10-25T00:22:53.431Z,97.2
2022-10-25T00:24:09.683Z,97.2
2022-10-25T00:25:25.934Z,97.1
2022-10-25T00:26:42.163Z,97.1
2022-10-25T00:27:58.409Z,96.8
2022-10-25T00:29:14.639Z,96.6
2022-10-25T00:30:29.888Z,96.5
2022-10-25T00:31:46.120Z,96.5
2022-10-25T00:33:02.363Z,96.6
2022-10-25T00:34:18.606Z,96.4
2022-10-25T00:35:34.865Z,96.9
2022-10-25T00:36:51.078Z,96.6
2022-10-25T00:38:07.335Z,96.5
2022-10-25T00:39:23.559Z,96.7
2022-10-25T00:44:28.532Z,96.8
2022-10-25T00:45:44.760Z,96.9
2022-10-25T00:47:00.018Z,96.9
2022-10-25T00:48:16.251Z,97.1
2022-10-25T00:49:32.498Z,97.1
2022-10-25T00:50:48.739Z,97
2022-10-25T00:52:04.992Z,96.7
2022-10-25T00:53:21.227Z,96.9
2022-10-25T00:55:53.700Z,97
2022-10-25T00:59:42.414Z,97.5
2022-10-25T01:00:58.668Z,97.7
2022-10-25T01:03:31.140Z,97.9
2022-10-25T01:06:03.618Z,98.4
2022-10-25T01:07:19.853Z,98.2
2022-10-25T01:08:36.091Z,98.4
2022-10-25T01:11:08.574Z,98.9
2022-10-25T01:14:57.285Z,99.3
2022-10-25T01:16:13.534Z,99.3
2022-10-25T01:18:46.015Z,99
2022-10-25T01:21:18.481Z,99
2022-10-25T01:26:23.452Z,99.3
2022-10-25T01:28:55.925Z,98.8
2022-10-25T01:30:12.168Z,98.8
2022-10-25T01:31:28.416Z,98.7
2022-10-25T01:35:17.261Z,99.3
2022-10-25T01:36:33.559Z,99.7
2022-10-25T01:40:22.451Z,100
2022-10-25T01:41:38.764Z,100
2022-10-25T01:44:11.353Z,100
2022-10-25T01:46:43.969Z,100
2022-10-25T01:48:00.262Z,100
2022-10-25T01:50:32.987Z,100
2022-10-25T01:51:48.512Z,100
2022-10-25T01:53:04.910Z,100
2022-10-25T01:55:37.761Z,100
2022-10-25T01:56:54.171Z,100
2022-10-25T01:58:10.583Z,100
2022-10-25T02:00:43.412Z,100
2022-10-25T02:01:59.839Z,100
2022-10-25T02:05:49.070Z,100
2022-10-25T02:07:05.485Z,100
2022-10-25T02:08:21.894Z,100
2022-10-25T02:10:54.740Z,100
2022-10-25T02:12:11.137Z,100
2022-10-25T02:16:00.394Z,100
2022-10-25T02:17:16.798Z,100
2022-10-25T02:21:06.026Z,100
2022-10-25T02:22:22.458Z,100
2022-10-25T02:26:11.707Z,100
2022-10-25T02:27:27.245Z,100
2022-10-25T02:28:43.642Z,100
2022-10-25T02:31:16.483Z,100
2022-10-25T02:32:32.898Z,100
2022-10-25T02:36:22.146Z,100
2022-10-25T02:37:37.656Z,100
2022-10-25T02:38:54.081Z,100
2022-10-25T02:41:26.925Z,100
2022-10-25T02:42:43.325Z,100
2022-10-25T02:43:59.738Z,100
2022-10-25T02:47:48.983Z,100
2022-10-25T02:49:05.391Z,100
2022-10-25T02:50:21.807Z,100
2022-10-25T02:51:38.224Z,100
2022-10-25T02:52:54.634Z,100
2022-10-25T02:55:27.465Z,100
2022-10-25T02:56:43.881Z,100
2022-10-25T02:58:00.298Z,100
2022-10-25T03:01:49.541Z,100
2022-10-25T03:03:05.957Z,100
2022-10-25T03:04:22.372Z,100
2022-10-25T03:05:38.794Z,100
2022-10-25T03:06:55.189Z,100
2022-10-25T03:08:11.609Z,100
2022-10-25T03:09:28.016Z,100
2022-10-25T03:10:44.443Z,100
2022-10-25T03:12:00.851Z,100
2022-10-25T03:13:17.273Z,100
2022-10-25T03:17:06.513Z,100
2022-10-25T03:18:22.918Z,100
2022-10-25T03:19:39.328Z,100
2022-10-25T03:22:12.148Z,100
2022-10-25T03:23:28.594Z,100
2022-10-25T03:26:01.834Z,100
2022-10-25T03:27:17.712Z,100
2022-10-25T03:28:34.340Z,100
2022-10-25T03:31:07.571Z,100
2022-10-25T03:33:40.828Z,100
2022-10-25T03:34:57.437Z,100
2022-10-25T03:37:30.663Z,100
2022-10-25T03:38:47.345Z,100
2022-10-25T03:40:04.020Z,100
2022-10-25T03:43:54.031Z,100
2022-10-25T03:45:10.707Z,100
2022-10-25T03:46:26.665Z,100
2022-10-25T03:47:43.352Z,100
2022-10-25T03:49:00.005Z,100
2022-10-25T03:50:16.680Z,100
2022-10-25T03:52:50.056Z,100
2022-10-25T03:55:23.397Z,100
2022-10-25T03:56:40.073Z,100
2022-10-25T03:57:56.750Z,100
2022-10-25T03:59:13.413Z,100
2022-10-25T04:00:30.092Z,100
2022-10-25T04:01:46.748Z,100
2022-10-25T04:04:20.108Z,100
2022-10-25T04:06:52.727Z,100
2022-10-25T04:08:09.391Z,100
2022-10-25T04:10:42.742Z,100
2022-10-25T04:13:16.095Z,100
2022-10-25T04:14:32.794Z,100
2022-10-25T04:15:49.465Z,100
2022-10-25T04:18:22.795Z,100
2022-10-25T04:19:39.493Z,100
2022-10-25T04:20:56.156Z,100
2022-10-25T04:22:12.815Z,100
2022-10-25T04:23:28.771Z,100
2022-10-25T04:24:44.370Z,100
2022-10-25T04:25:59.685Z,100
2022-10-25T04:27:15.970Z,100
2022-10-25T04:28:32.279Z,100
2022-10-25T04:29:48.565Z,100
2022-10-25T04:31:04.853Z,100
2022-10-25T04:32:21.152Z,100
2022-10-25T04:33:37.437Z,100
2022-10-25T04:34:53.742Z,100
2022-10-25T04:36:10.032Z,100
2022-10-25T04:37:26.334Z,100
2022-10-25T04:38:41.651Z,100
2022-10-25T04:39:56.942Z,100
2022-10-25T04:41:13.237Z,100
2022-10-25T04:42:29.539Z,100
2022-10-25T04:43:45.841Z,100
2022-10-25T04:45:02.138Z,100
2022-10-25T04:46:18.424Z,100
2022-10-25T04:47:34.715Z,100
2022-10-25T04:48:51.011Z,100
2022-10-25T04:50:07.308Z,100
2022-10-25T04:51:23.599Z,100
2022-10-25T04:52:38.908Z,100
2022-10-25T04:53:54.217Z,100
2022-10-25T04:55:10.525Z,100
2022-10-25T04:56:26.806Z,100
2022-10-25T04:57:43.114Z,100
2022-10-25T04:58:59.412Z,100
2022-10-25T05:00:15.688Z,100
2022-10-25T05:01:31.990Z,100
2022-10-25T05:02:48.280Z,100
2022-10-25T05:04:04.583Z,100
2022-10-25T05:05:20.864Z,100
2022-10-25T05:06:37.170Z,100
2022-10-25T05:07:53.470Z,100
2022-10-25T05:09:09.747Z,100
2022-10-25T05:10:25.062Z,100
2022-10-25T05:11:41.364Z,100
2022-10-25T05:12:57.653Z,100
2022-10-25T05:14:13.937Z,100
2022-10-25T05:15:30.237Z,100
2022-10-25T05:16:46.539Z,100
2022-10-25T05:18:02.824Z,100
2022-10-25T05:19:18.147Z,100
2022-10-25T05:20:33.455Z,100
2022-10-25T05:21:49.747Z,100
2022-10-25T05:23:06.036Z,100
2022-10-25T05:24:22.345Z,100
2022-10-25T05:25:38.635Z,100
2022-10-25T05:26:54.928Z,100
2022-10-25T05:28:11.227Z,100
2022-10-25T05:29:27.518Z,100
2022-10-25T05:30:43.802Z,100
2022-10-25T05:32:00.097Z,100
2022-10-25T05:33:16.387Z,100
2022-10-25T05:34:32.691Z,100
2022-10-25T05:35:48.982Z,100
2022-10-25T05:37:04.296Z,100
2022-10-25T05:38:20.594Z,100
2022-10-25T05:39:36.888Z,100
2022-10-25T05:40:53.171Z,100
2022-10-25T05:42:09.484Z,100
2022-10-25T05:43:25.759Z,100
2022-10-25T05:44:42.053Z,100
2022-10-25T05:45:57.382Z,100
2022-10-25T05:47:12.678Z,100
2022-10-25T05:48:28.000Z,100
2022-10-25T05:49:43.316Z,100
2022-10-25T05:50:59.608Z,100
2022-10-25T05:52:15.901Z,100
2022-10-25T05:53:32.207Z,100
2022-10-25T05:54:48.498Z,100
2022-10-25T05:56:04.785Z,100
2022-10-25T05:57:21.083Z,100
2022-10-25T05:58:37.368Z,100
2022-10-25T05:59:53.657Z,100
2022-10-25T06:01:09.958Z,100
2022-10-25T06:02:26.244Z,100
2022-10-25T06:03:42.553Z,100
2022-10-25T06:04:58.858Z,100
2022-10-25T06:06:14.166Z,100
2022-10-25T06:07:30.445Z,100
2022-10-25T06:08:46.748Z,100
2022-10-25T06:10:03.044Z,100
2022-10-25T06:11:19.323Z,100
2022-10-25T06:12:35.616Z,100
2022-10-25T06:13:51.914Z,100
2022-10-25T06:15:07.233Z,100
2022-10-25T06:16:22.540Z,100
2022-10-25T06:17:38.851Z,100
2022-10-25T06:18:55.131Z,100
2022-10-25T06:20:11.432Z,100
2022-10-25T06:21:27.721Z,100
2022-10-25T06:22:44.029Z,100
2022-10-25T06:24:00.305Z,100
2022-10-25T06:25:16.605Z,100
2022-10-25T06:26:32.891Z,100
2022-10-25T06:27:49.188Z,100
2022-10-25T06:29:05.495Z,100
2022-10-25T06:30:21.773Z,100
2022-10-25T06:31:38.076Z,100
2022-10-25T06:32:53.379Z,100
2022-10-25T06:34:09.675Z,100
2022-10-25T06:35:25.974Z,100
2022-10-25T06:36:42.256Z,100
2022-10-25T06:37:58.568Z,99.8
2022-10-25T06:39:14.862Z,99.5
2022-10-25T06:40:31.153Z,99.4
2022-10-25T06:41:46.458Z,99.2
2022-10-25T06:43:01.779Z,99
2022-10-25T06:44:18.076Z,99.1
2022-10-25T06:45:34.378Z,98.6
2022-10-25T06:46:50.649Z,98.5
2022-10-25T06:48:06.955Z,98.5
2022-10-25T06:49:23.241Z,97.9
2022-10-25T06:50:39.543Z,97.9
2022-10-25T06:51:55.825Z,97.8
2022-10-25T06:53:11.143Z,97.7
2022-10-25T06:54:27.434Z,97.3
2022-10-25T06:55:43.744Z,97.3
2022-10-25T06:57:00.039Z,97.5
2022-10-25T06:58:16.327Z,96.5
2022-10-25T06:59:32.627Z,96.7
2022-10-25T07:00:48.849Z,96.8
2022-10-25T07:02:05.098Z,95.6
2022-10-25T07:03:21.326Z,94.9
2022-10-25T07:04:37.580Z,95.6
2022-10-25T07:05:53.822Z,95
2022-10-25T07:07:10.051Z,94.3
2022-10-25T07:08:25.316Z,94.9
2022-10-25T07:09:40.562Z,93.8
2022-10-25T07:10:55.823Z,93.3
2022-10-25T07:12:11.084Z,93.8
2022-10-25T07:13:26.359Z,93.6
2022-10-25T07:14:41.613Z,93.2
2022-10-25T07:15:57.854Z,93.2
2022-10-25T07:17:14.092Z,92.5
2022-10-25T07:18:30.319Z,93
2022-10-25T07:19:46.554Z,92.7
2022-10-25T07:21:02.806Z,92.8
2022-10-25T07:22:19.034Z,91.7
2022-10-25T07:23:35.287Z,91.9
2022-10-25T07:24:51.515Z,91.5
2022-10-25T07:26:07.765Z,91.1
2022-10-25T07:27:24.007Z,92
2022-10-25T07:28:40.235Z,92.5
2022-10-25T07:29:56.475Z,91.2
2022-10-25T07:31:11.725Z,91.6
2022-10-25T07:32:27.975Z,92.5
2022-10-25T07:33:44.206Z,91.4
2022-10-25T07:35:00.446Z,92.4
2022-10-25T07:36:16.685Z,91.8
2022-10-25T07:37:32.924Z,92.1
2022-10-25T07:38:48.192Z,90.6
2022-10-25T07:40:03.445Z,91.2
2022-10-25T07:41:19.674Z,90.6
2022-10-25T07:42:35.921Z,91.4
2022-10-25T07:43:52.170Z,91.2
2022-10-25T07:45:08.409Z,91.1
2022-10-25T07:46:24.637Z,90.8
2022-10-25T07:47:40.873Z,90.2
2022-10-25T07:48:57.115Z,89.6
2022-10-25T07:50:13.366Z,89.6
2022-10-25T07:51:29.608Z,88.8
2022-10-25T07:52:45.831Z,88.2
2022-10-25T07:54:02.071Z,89.4
2022-10-25T07:55:18.322Z,87.9
2022-10-25T07:56:33.568Z,86.8
2022-10-25T07:57:49.804Z,85.9
2022-10-25T07:59:06.058Z,86.6
2022-10-25T08:00:22.289Z,85.7
2022-10-25T08:01:38.545Z,85.3
2022-10-25T08:02:54.778Z,84
2022-10-25T08:04:11.017Z,81.1
2022-10-25T08:05:26.272Z,78.5
2022-10-25T08:06:41.518Z,78.9
2022-10-25T08:07:56.792Z,79
2022-10-25T08:09:12.039Z,80.6
2022-10-25T08:10:28.272Z,81.2
2022-10-25T08:11:44.529Z,83.4
2022-10-25T08:13:00.757Z,82.6
2022-10-25T08:14:16.996Z,83.4
2022-10-25T08:15:33.242Z,82.6
2022-10-25T08:16:49.485Z,83.8
2022-10-25T08:18:05.714Z,85.1
2022-10-25T08:19:21.955Z,83.6
2022-10-25T08:20:38.188Z,84.8
2022-10-25T08:21:54.436Z,84
2022-10-25T08:23:10.670Z,84.8
2022-10-25T08:24:26.905Z,85.3
2022-10-25T08:25:42.169Z,85.5
2022-10-25T08:26:58.409Z,86
2022-10-25T08:28:14.644Z,86
2022-10-25T08:29:30.898Z,85.5
2022-10-25T08:30:47.132Z,85.3
2022-10-25T08:32:03.374Z,85.8
2022-10-25T08:33:19.612Z,84.8
2022-10-25T08:34:34.865Z,85.2
2022-10-25T08:35:50.126Z,85.2
2022-10-25T08:37:05.387Z,84.9
2022-10-25T08:38:20.641Z,84.2
2022-10-25T08:39:35.889Z,83.9
2022-10-25T08:40:51.162Z,85
2022-10-25T08:42:07.392Z,84.7
2022-10-25T08:43:23.635Z,85.2
2022-10-25T08:44:39.862Z,83.4
2022-10-25T08:45:56.110Z,85.7
2022-10-25T08:47:12.348Z,84.6
2022-10-25T08:48:28.588Z,86
2022-10-25T08:49:44.819Z,82.9
2022-10-25T08:51:01.063Z,84.5
2022-10-25T08:52:17.309Z,83.5
2022-10-25T08:53:33.537Z,83.9
2022-10-25T08:54:49.775Z,83.1
2022-10-25T08:56:06.015Z,83.2
2022-10-25T08:57:21.279Z,82.9
2022-10-25T08:59:53.767Z,83.1
2022-10-25T09:01:09.000Z,81.4
2022-10-25T09:02:26.229Z,80.8
2022-10-25T09:03:42.485Z,81.7
2022-10-25T09:04:58.724Z,80.9
2022-10-25T09:06:14.963Z,77.1
2022-10-25T09:07:30.221Z,74.7
2022-10-25T09:08:45.460Z,73.2
2022-10-25T09:10:01.720Z,74.8
2022-10-25T09:11:17.945Z,73.8
2022-10-25T09:12:34.195Z,74.8
2022-10-25T09:13:50.423Z,75.5
2022-10-25T09:15:06.663Z,75.9
2022-10-25T09:16:22.901Z,76.7
2022-10-25T09:17:39.148Z,78
2022-10-25T09:18:55.383Z,76
2022-10-25T09:20:11.631Z,76.6
2022-10-25T09:21:27.858Z,76.9
2022-10-25T09:22:44.100Z,80.1
2022-10-25T09:24:00.335Z,77.6
2022-10-25T09:25:15.601Z,78.9
2022-10-25T09:26:31.843Z,79
2022-10-25T09:27:48.077Z,79.5
2022-10-25T09:29:04.307Z,77.4
2022-10-25T09:30:20.547Z,79.3
2022-10-25T09:31:36.796Z,78.7
2022-10-25T09:32:53.031Z,79.4
2022-10-25T09:34:08.296Z,78.4
2022-10-25T09:35:23.556Z,77.1
2022-10-25T09:36:38.808Z,78.2
2022-10-25T09:37:54.054Z,78
2022-10-25T09:39:10.308Z,77.4
2022-10-25T09:40:26.542Z,78.6
2022-10-25T09:41:42.772Z,77.2
2022-10-25T09:42:59.025Z,79.3
2022-10-25T09:44:15.253Z,79.6
2022-10-25T09:45:31.500Z,80
2022-10-25T09:46:47.732Z,79.7
2022-10-25T09:48:03.978Z,78.5
2022-10-25T09:49:20.217Z,79
2022-10-25T09:50:36.453Z,78.5
2022-10-25T09:51:52.698Z,78.7
2022-10-25T09:53:08.937Z,79.6
2022-10-25T09:54:24.181Z,79.5
2022-10-25T09:55:40.423Z,79.2
2022-10-25T09:56:56.662Z,78.7
2022-10-25T09:58:12.905Z,78.7
2022-10-25T09:59:29.151Z,77.6
2022-10-25T10:00:45.376Z,77.2
2022-10-25T10:02:01.623Z,77
2022-10-25T10:03:16.884Z,77.5
2022-10-25T10:04:32.147Z,77.4
2022-10-25T10:05:48.373Z,76.5
2022-10-25T10:07:04.629Z,75.6
2022-10-25T10:08:20.862Z,76.6
2022-10-25T10:09:37.109Z,75.8
2022-10-25T10:10:53.329Z,73.5
2022-10-25T10:12:09.570Z,74.8
2022-10-25T10:13:25.824Z,73.8
2022-10-25T10:14:42.053Z,73.2
2022-10-25T10:15:58.303Z,73
2022-10-25T10:17:14.527Z,73.3
2022-10-25T10:18:30.775Z,73.4
2022-10-25T10:19:47.019Z,72.7
2022-10-25T10:21:02.260Z,74.2
2022-10-25T10:22:18.513Z,74.5
2022-10-25T10:23:34.756Z,74
2022-10-25T10:24:50.976Z,73.5
2022-10-25T10:26:07.219Z,74
2022-10-25T10:27:23.462Z,74.5
2022-10-25T10:28:39.707Z,74
2022-10-25T10:29:55.926Z,74.5
2022-10-25T10:31:12.176Z,74.9
2022-10-25T10:32:28.424Z,76
2022-10-25T10:33:44.655Z,75.8
2022-10-25T10:35:00.886Z,76.6
2022-10-25T10:36:17.130Z,78
2022-10-25T10:37:32.391Z,79.1
2022-10-25T10:38:48.634Z,78.9
2022-10-25T10:40:04.869Z,79.7
2022-10-25T10:41:21.099Z,81.4
2022-10-25T10:42:37.347Z,80.6
2022-10-25T10:43:53.598Z,80.4
2022-10-25T10:45:09.830Z,79.8
2022-10-25T10:46:26.073Z,78.7
2022-10-25T10:47:42.311Z,79.2
2022-10-25T10:48:58.559Z,79.9
2022-10-25T10:50:14.778Z,79
2022-10-25T10:51:31.010Z,78.5
2022-10-25T10:52:47.260Z,80.3
2022-10-25T10:54:02.515Z,79.9
2022-10-25T10:55:18.754Z,80
2022-10-25T10:56:34.987Z,82.6
2022-10-25T10:57:51.220Z,83.1
2022-10-25T10:59:07.469Z,83.2
2022-10-25T11:00:23.718Z,85.9
2022-10-25T11:01:39.954Z,85.9
2022-10-25T11:02:56.192Z,87.9
2022-10-25T11:04:12.432Z,87.3
2022-10-25T11:05:28.672Z,88.3
2022-10-25T11:06:44.913Z,87
2022-10-25T11:08:00.157Z,86.8
2022-10-25T11:09:16.386Z,86.5
2022-10-25T11:10:32.652Z,86.1
2022-10-25T11:11:48.887Z,88.5
2022-10-25T11:13:05.127Z,84
2022-10-25T11:14:21.357Z,82.7
2022-10-25T11:15:37.597Z,82.9
2022-10-25T11:16:53.841Z,83.8
2022-10-25T11:18:10.087Z,83.1
2022-10-25T11:19:26.315Z,82.1
2022-10-25T11:20:42.554Z,84.9
2022-10-25T11:21:58.806Z,82.3
2022-10-25T11:23:15.046Z,82.9
2022-10-25T11:24:30.275Z,84.3
2022-10-25T11:25:46.541Z,85.9
2022-10-25T11:27:02.763Z,84.4
2022-10-25T11:28:18.991Z,85.2
2022-10-25T11:29:35.243Z,80.7
2022-10-25T11:30:51.496Z,80.2
2022-10-25T11:32:07.709Z,83.5
2022-10-25T11:34:40.210Z,82.5
2022-10-25T11:35:56.451Z,80
2022-10-25T11:37:12.683Z,82
2022-10-25T11:38:28.918Z,78.8
2022-10-25T11:39:45.149Z,81.5
2022-10-25T11:41:00.422Z,81.2
2022-10-25T11:42:16.647Z,82.3
2022-10-25T11:43:32.903Z,80.8
2022-10-25T11:44:49.122Z,80.7
2022-10-25T11:46:05.367Z,80.7
2022-10-25T11:47:21.617Z,80
2022-10-25T11:48:37.843Z,81.7
2022-10-25T11:49:54.074Z,81.2
2022-10-25T11:51:10.321Z,79.4
2022-10-25T11:52:26.569Z,80.6
2022-10-25T11:53:42.812Z,80.2
2022-10-25T11:54:59.035Z,81.9
2022-10-25T11:56:15.286Z,79
2022-10-25T11:57:30.549Z,77.8
2022-10-25T11:58:46.772Z,76.6
2022-10-25T12:00:02.999Z,78
2022-10-25T12:01:19.267Z,79
2022-10-25T12:02:35.481Z,78.7
2022-10-25T12:03:51.736Z,77.6
2022-10-25T12:05:07.973Z,76.5
2022-10-25T12:06:24.211Z,78.7
2022-10-25T12:07:40.464Z,76.5
2022-10-25T12:08:56.685Z,76.3
2022-10-25T12:10:12.929Z,74.7
2022-10-25T12:11:29.153Z,76.1
2022-10-25T12:12:45.400Z,74.8
2022-10-25T12:14:01.646Z,74.7
2022-10-25T12:15:16.888Z,75.2
2022-10-25T12:16:33.139Z,73
2022-10-25T12:17:49.377Z,74.5
2022-10-25T12:19:05.628Z,72.3
2022-10-25T12:20:21.848Z,73
2022-10-25T12:21:38.101Z,72.9
2022-10-25T12:22:54.346Z,72.1
2022-10-25T12:24:10.582Z,74.5
2022-10-25T12:25:26.830Z,75.3
2022-10-25T12:26:43.063Z,71.8
2022-10-25T12:27:59.302Z,72.6
2022-10-25T12:29:15.531Z,74.7
2022-10-25T12:30:31.778Z,74.9
2022-10-25T12:31:47.033Z,74
2022-10-25T12:33:03.281Z,75.5
2022-10-25T12:34:19.517Z,74.3
2022-10-25T12:35:35.736Z,73.7
2022-10-25T12:36:51.971Z,73.6
2022-10-25T12:38:08.211Z,74.9
2022-10-25T12:39:24.466Z,73.8
2022-10-25T12:40:40.715Z,74.5
2022-10-25T12:41:56.949Z,73.5
2022-10-25T12:43:13.171Z,73.8
2022-10-25T12:44:29.419Z,71.2
2022-10-25T12:45:45.657Z,72.8
2022-10-25T12:47:01.901Z,71
2022-10-25T12:48:17.148Z,72.1
2022-10-25T12:49:33.383Z,72.2
2022-10-25T12:50:49.628Z,72.1
2022-10-25T12:52:05.884Z,71.7
2022-10-25T12:53:22.106Z,72.4
2022-10-25T12:54:38.349Z,71.4
2022-10-25T12:55:54.584Z,72.7
2022-10-25T12:57:10.826Z,73.3
2022-10-25T12:58:27.076Z,72.1
2022-10-25T12:59:43.311Z,73
2022-10-25T13:00:59.548Z,73.5
2022-10-25T13:02:15.790Z,72.7
2022-10-25T13:03:32.032Z,72.3
2022-10-25T13:04:47.267Z,71.1
2022-10-25T13:06:03.510Z,72.7
2022-10-25T13:07:19.765Z,73.1
2022-10-25T13:08:36.003Z,72.9
2022-10-25T13:09:52.240Z,71.7
2022-10-25T13:11:08.467Z,71.7
2022-10-25T13:12:24.716Z,74.4
2022-10-25T13:13:40.957Z,73.8
2022-10-25T13:16:13.424Z,73.5
2022-10-25T13:17:29.678Z,73.2
2022-10-25T13:18:45.912Z,75.3
2022-10-25T13:20:02.135Z,74.8
2022-10-25T13:21:17.390Z,74.4
2022-10-25T13:22:33.641Z,74.6
2022-10-25T13:23:49.884Z,76.2
2022-10-25T13:25:06.126Z,76.3
2022-10-25T13:26:22.366Z,76.5
2022-10-25T13:27:38.582Z,76.3
2022-10-25T13:28:54.835Z,75.9
2022-10-25T13:30:11.086Z,75.9
2022-10-25T13:31:27.310Z,76
2022-10-25T13:32:43.565Z,76.5
2022-10-25T13:33:59.790Z,75.1
2022-10-25T13:35:16.035Z,74.1
2022-10-25T13:36:32.272Z,75.9
2022-10-25T13:37:47.541Z,74.5
2022-10-25T13:39:03.753Z,72.8
2022-10-25T13:40:20.015Z,73.3
2022-10-25T13:41:36.234Z,73.3
2022-10-25T13:42:52.478Z,74.2
2022-10-25T13:44:08.716Z,73.2
2022-10-25T13:45:24.969Z,74.7
2022-10-25T13:46:41.199Z,74.8
2022-10-25T13:47:57.432Z,73.3
2022-10-25T13:49:13.674Z,75.6
2022-10-25T13:50:29.907Z,74.5
2022-10-25T13:51:46.146Z,76.5
2022-10-25T13:53:02.405Z,75.7
2022-10-25T13:54:17.636Z,76.8
2022-10-25T13:55:33.901Z,76.5
2022-10-25T13:56:50.132Z,73.1
2022-10-25T13:58:06.376Z,76.2
2022-10-25T13:59:22.602Z,73.9
2022-10-25T14:00:38.855Z,74.6
2022-10-25T14:01:55.092Z,75.4
2022-10-25T14:03:11.332Z,76.5
2022-10-25T14:04:27.561Z,74.8
2022-10-25T14:05:43.810Z,75
2022-10-25T14:07:00.036Z,74.8
2022-10-25T14:08:16.278Z,76
2022-10-25T14:09:32.517Z,75.9
2022-10-25T14:10:47.784Z,74.2
2022-10-25T14:12:04.013Z,75.1
2022-10-25T14:13:20.266Z,75.5
2022-10-25T14:14:36.488Z,76.7
2022-10-25T14:15:52.727Z,75.4
2022-10-25T14:17:08.982Z,76.8
2022-10-25T14:18:25.208Z,76.5
2022-10-25T14:19:41.443Z,76.6
2022-10-25T14:20:57.691Z,77.7
2022-10-25T14:22:13.924Z,77.8
2022-10-25T14:23:30.166Z,77.4
2022-10-25T14:24:46.411Z,77.8
2022-10-25T14:26:02.651Z,78
2022-10-25T14:27:17.909Z,78.9
2022-10-25T14:28:34.143Z,78.5
2022-10-25T14:29:50.383Z,80.3
2022-10-25T14:31:06.634Z,79.1
2022-10-25T14:32:22.855Z,77.7
2022-10-25T14:33:39.109Z,77.9
2022-10-25T14:34:55.335Z,77.8
2022-10-25T14:36:11.579Z,78.7
2022-10-25T14:37:27.805Z,77.3
2022-10-25T14:38:44.065Z,77.7
2022-10-25T14:40:00.303Z,78.5
2022-10-25T14:41:16.540Z,78.3
2022-10-25T14:42:32.769Z,79.4
2022-10-25T14:43:48.024Z,80.8
2022-10-25T14:45:04.253Z,79.8
2022-10-25T14:46:20.501Z,79.9
2022-10-25T14:47:36.753Z,80
2022-10-25T14:48:52.985Z,80.3
2022-10-25T14:50:09.233Z,81.1
2022-10-25T14:51:25.466Z,81.5
2022-10-25T14:52:41.698Z,81.3
2022-10-25T14:53:57.950Z,82
2022-10-25T14:55:14.180Z,82.1
2022-10-25T14:56:30.418Z,80.7
2022-10-25T14:57:46.663Z,82.2
2022-10-25T14:59:02.896Z,81
2022-10-25T15:00:18.142Z,82
2022-10-25T15:01:34.404Z,82.4
2022-10-25T15:02:50.636Z,82
2022-10-25T15:04:06.885Z,80.6
2022-10-25T15:05:23.107Z,80.4
2022-10-25T15:06:39.352Z,80.4
2022-10-25T15:07:55.599Z,81.7
2022-10-25T15:09:11.828Z,81.6
2022-10-25T15:10:28.065Z,81.2
2022-10-25T15:11:44.320Z,81.7
2022-10-25T15:13:00.549Z,83.2
2022-10-25T15:14:16.781Z,82.9
2022-10-25T15:15:33.020Z,83.4
2022-10-25T15:16:48.292Z,83.4
2022-10-25T15:18:04.528Z,84.1
2022-10-25T15:19:20.754Z,83.9
2022-10-25T15:20:37.005Z,83
2022-10-25T15:21:53.246Z,84.2
2022-10-25T15:23:08.494Z,84
2022-10-25T15:24:24.744Z,83.6
2022-10-25T15:25:40.973Z,84.4
2022-10-25T15:26:57.219Z,83.6
2022-10-25T15:28:13.448Z,84
2022-10-25T15:29:29.708Z,84.3
2022-10-25T15:30:45.934Z,84.3
2022-10-25T15:32:02.182Z,84.5
2022-10-25T15:33:18.406Z,84.9
2022-10-25T15:34:34.659Z,85.6
2022-10-25T15:35:50.888Z,85.1
2022-10-25T15:37:07.113Z,85.6
2022-10-25T15:38:23.369Z,85.8
2022-10-25T15:39:38.631Z,86.3
2022-10-25T15:40:54.873Z,86
2022-10-25T15:42:11.108Z,86.4
2022-10-25T15:43:27.333Z,87.1
2022-10-25T15:44:43.574Z,87
2022-10-25T15:45:59.809Z,88
2022-10-25T15:47:16.067Z,87.7
2022-10-25T15:48:32.293Z,88.5
2022-10-25T15:49:48.545Z,87.4
2022-10-25T15:51:04.772Z,88.2
2022-10-25T15:52:21.011Z,87.9
2022-10-25T15:53:37.259Z,88.4
2022-10-25T15:54:53.502Z,88
2022-10-25T15:56:08.764Z,88.7
2022-10-25T15:57:24.993Z,89.3
2022-10-25T15:58:41.220Z,89.4
2022-10-25T15:59:57.468Z,89.6
2022-10-25T16:01:13.705Z,89.3
2022-10-25T16:03:46.180Z,89
2022-10-25T16:06:18.664Z,88.7
2022-10-25T16:07:34.902Z,88.7
2022-10-25T16:08:51.140Z,88.1
2022-10-25T16:10:07.364Z,88.1
2022-10-25T16:11:23.625Z,88.1
2022-10-25T16:13:55.120Z,88.6
2022-10-25T16:15:11.355Z,89.6
2022-10-25T16:16:27.582Z,88.5
2022-10-25T16:17:42.854Z,89.2
2022-10-25T16:18:58.106Z,89.3
2022-10-25T16:20:14.345Z,89.6
2022-10-25T16:21:30.591Z,89.9
2022-10-25T16:22:46.833Z,90
2022-10-25T16:24:03.068Z,89.8
2022-10-25T16:25:19.295Z,89.9
2022-10-25T16:26:35.539Z,90.5
2022-10-25T16:27:51.776Z,90.8
2022-10-25T16:29:08.014Z,91.1
2022-10-25T16:30:24.257Z,91.1
2022-10-25T16:31:39.514Z,91.7
2022-10-25T16:32:54.786Z,91.7
2022-10-25T16:34:11.022Z,91.9
2022-10-25T16:35:27.250Z,91.9
2022-10-25T16:36:43.500Z,92.4
2022-10-25T16:37:59.732Z,92.7
2022-10-25T16:39:15.974Z,93
2022-10-25T16:40:32.220Z,93.1
2022-10-25T16:41:48.445Z,93.7
2022-10-25T16:43:04.686Z,93.9
2022-10-25T16:44:20.936Z,93.9
2022-10-25T16:45:37.173Z,93.8
2022-10-25T16:46:53.402Z,93.7
2022-10-25T16:48:09.651Z,94
2022-10-25T16:49:24.897Z,94.3
2022-10-25T16:50:41.154Z,94.7
2022-10-25T16:51:57.390Z,94.7
2022-10-25T16:53:13.613Z,94.5
2022-10-25T16:54:29.858Z,94.8
2022-10-25T16:55:46.108Z,94.7
2022-10-25T16:57:02.349Z,95
2022-10-25T16:58:18.590Z,95.1
2022-10-25T16:59:34.825Z,96.1
2022-10-25T17:00:51.065Z,95.2
2022-10-25T17:02:07.299Z,94.9
2022-10-25T17:03:23.531Z,95.2
2022-10-25T17:04:39.774Z,95.2
2022-10-25T17:05:55.031Z,95.3
2022-10-25T17:07:11.261Z,95.3
2022-10-25T17:08:27.508Z,95.7
2022-10-25T17:09:43.746Z,95.4
2022-10-25T17:10:59.995Z,95.4
2022-10-25T17:12:16.237Z,95.7
2022-10-25T17:13:32.472Z,96.4
2022-10-25T17:14:48.711Z,96.3
2022-10-25T17:16:04.958Z,96.6
2022-10-25T17:17:21.184Z,96.8
2022-10-25T17:18:37.418Z,96.5
2022-10-25T17:19:53.671Z,96.9
2022-10-25T17:21:09.907Z,97
2022-10-25T17:22:25.157Z,97.5
2022-10-25T17:23:41.402Z,97.8
2022-10-25T17:24:57.632Z,97.3
2022-10-25T17:26:13.888Z,97.4
2022-10-25T17:27:30.113Z,97.4
2022-10-25T17:28:46.366Z,97.2
2022-10-25T17:30:02.589Z,97.8
2022-10-25T17:31:18.837Z,97.7
2022-10-25T17:32:35.084Z,97.4
2022-10-25T17:33:51.312Z,97.8
2022-10-25T17:35:07.548Z,98.3
2022-10-25T17:36:23.791Z,98.8
2022-10-25T17:37:40.028Z,98.5
2022-10-25T17:38:55.285Z,98.7
2022-10-25T17:40:11.533Z,98.4
2022-10-25T17:41:27.768Z,99.2
2022-10-25T17:42:43.996Z,99
2022-10-25T17:44:00.240Z,99.4
2022-10-25T17:45:16.483Z,100
2022-10-25T17:46:32.715Z,100
2022-10-25T17:47:48.954Z,100
2022-10-25T17:49:05.212Z,100
2022-10-25T17:50:21.453Z,100
2022-10-25T17:51:37.686Z,100
2022-10-25T17:52:53.912Z,100
2022-10-25T17:54:10.158Z,100
2022-10-25T17:55:25.406Z,100
2022-10-25T17:56:41.667Z,100
2022-10-25T17:57:57.898Z,100
2022-10-25T17:59:14.134Z,100
2022-10-25T18:00:30.367Z,100
2022-10-25T18:01:46.608Z,100
2022-10-25T18:03:02.859Z,100
2022-10-25T18:04:19.091Z,100
2022-10-25T18:05:35.328Z,100
2022-10-25T18:06:51.572Z,100
2022-10-25T18:08:07.804Z,100
2022-10-25T18:09:24.096Z,100
2022-10-25T18:10:40.391Z,100
2022-10-25T18:11:55.717Z,100
2022-10-25T18:13:12.015Z,100
2022-10-25T18:14:28.303Z,100
2022-10-25T18:15:44.592Z,100
2022-10-25T18:17:00.880Z,100
2022-10-25T18:18:17.171Z,100
2022-10-25T18:19:33.484Z,100
2022-10-25T18:20:49.766Z,100
2022-10-25T18:22:06.074Z,100
2022-10-25T18:23:22.352Z,100
2022-10-25T18:24:38.642Z,100
2022-10-25T18:25:54.943Z,100
2022-10-25T18:27:11.249Z,100
2022-10-25T18:28:26.546Z,100
2022-10-25T18:29:42.834Z,100
2022-10-25T18:30:59.142Z,100
2022-10-25T18:32:15.429Z,100
2022-10-25T18:33:31.724Z,100
2022-10-25T18:34:48.031Z,100
2022-10-25T18:36:04.313Z,100
2022-10-25T18:37:20.611Z,100
2022-10-25T18:38:36.904Z,100